Hunting Valley, Ohio
Current Conditions -  °F | °C
As of 10:45 PM on Wednesday 28 Jan 2015 (Local Time) from KCGF Reporting Station
Broken Clouds Broken Clouds  
Wind Chill: 18°   Ceiling: 20000
Heat Index: 27°   Visibility: 10mi
Dew Point: 12°   Wind: 8mph
Humidity: 55%   Direction: 160°SSE
Pressure: 30.22"   Gusts: NA
Location:  41.4475°N, 81.4018°W
Report Text: KCGF 290345Z 16007KT 10SM SCT120 BKN200 M03/M11 A3022
Loading
Personal Weather Stations






























Interactive Weather Map New forecast layout! Learn more

10-Day Weather Forecast

Advertisements
Track Severe Weather on mobile